createdAt,value
2023-05-10T00:02:07.582Z,8.57
2023-05-10T00:07:12.179Z,9.90
2023-05-10T00:12:15.114Z,7.40
2023-05-10T00:17:17.829Z,10.10
2023-05-10T00:22:21.912Z,10.15
2023-05-10T00:27:24.589Z,9.48
2023-05-10T00:32:27.377Z,11.52
2023-05-10T00:37:31.367Z,10.32
2023-05-10T00:42:34.309Z,11.82
2023-05-10T00:47:37.345Z,13.32
2023-05-10T00:52:41.387Z,14.23
2023-05-10T00:57:44.245Z,12.05
2023-05-10T01:02:48.039Z,11.13
2023-05-10T01:07:52.215Z,12.88
2023-05-10T01:12:54.919Z,13.23
2023-05-10T01:17:57.964Z,15.85
2023-05-10T01:23:33.361Z,13.30
2023-05-10T01:29:00.254Z,15.10
2023-05-10T01:34:09.304Z,10.70
2023-05-10T01:39:17.984Z,12.85
2023-05-10T01:44:26.776Z,10.55
2023-05-10T01:49:33.075Z,11.52
2023-05-10T01:54:36.507Z,13.63
2023-05-10T01:59:41.640Z,7.28
2023-05-10T02:04:47.162Z,8.77
2023-05-10T02:09:50.011Z,8.98
2023-05-10T02:14:53.626Z,8.70
2023-05-10T02:19:58.507Z,9.48
2023-05-10T02:25:01.829Z,7.30
2023-05-10T02:30:05.297Z,8.52
2023-05-10T02:35:10.707Z,9.98
2023-05-10T02:40:14.066Z,10.35
2023-05-10T02:45:19.769Z,10.10
2023-05-10T02:50:24.287Z,11.15
2023-05-10T02:55:29.044Z,10.75
2023-05-10T03:00:31.855Z,9.13
2023-05-10T03:05:35.848Z,11.98
2023-05-10T03:10:43.797Z,12.45
2023-05-10T03:15:51.008Z,13.23
2023-05-10T03:20:59.575Z,14.23
2023-05-10T03:26:03.167Z,12.48
2023-05-10T03:31:07.913Z,14.15
2023-05-10T03:36:12.325Z,12.73
2023-05-10T03:41:15.037Z,15.63
2023-05-10T03:46:17.932Z,13.18
2023-05-10T03:51:23.168Z,12.65
2023-05-10T03:56:25.889Z,15.57
2023-05-10T04:01:28.560Z,16.88
2023-05-10T04:06:32.840Z,19.50
2023-05-10T04:11:35.778Z,15.75
2023-05-10T04:16:38.477Z,16.85
2023-05-10T04:21:42.431Z,15.63
2023-05-10T04:26:45.078Z,18.48
2023-05-10T04:31:47.714Z,19.05
2023-05-10T04:36:51.703Z,23.88
2023-05-10T04:41:54.415Z,23.17
2023-05-10T04:46:57.038Z,26.70
2023-05-10T04:52:01.064Z,29.38
2023-05-10T04:57:03.648Z,26.00
2023-05-10T05:02:07.306Z,23.13
2023-05-10T05:07:11.335Z,35.88
2023-05-10T05:12:15.123Z,33.33
2023-05-10T05:17:17.904Z,29.77
2023-05-10T05:22:28.146Z,30.45
2023-05-10T05:27:31.276Z,28.73
2023-05-10T05:32:33.955Z,34.72
2023-05-10T05:37:38.359Z,30.35
2023-05-10T05:42:40.965Z,27.38
2023-05-10T05:47:43.746Z,25.30
2023-05-10T05:52:47.724Z,30.13
2023-05-10T05:57:50.305Z,24.08
2023-05-10T06:02:53.202Z,13.73
2023-05-10T06:07:57.379Z,19.45
2023-05-10T06:13:00.002Z,17.67
2023-05-10T06:18:02.748Z,20.75
2023-05-10T06:23:34.796Z,21.30
2023-05-10T06:28:40.128Z,19.25
2023-05-10T06:33:45.034Z,26.38
2023-05-10T06:38:49.474Z,21.58
2023-05-10T06:43:52.168Z,20.52
2023-05-10T06:48:54.804Z,16.63
2023-05-10T06:54:03.213Z,22.05
2023-05-10T06:59:05.941Z,22.73
2023-05-10T07:04:08.676Z,22.95
2023-05-10T07:09:12.583Z,26.00
2023-05-10T07:14:15.208Z,23.90
2023-05-10T07:19:17.772Z,18.60
2023-05-10T07:24:24.309Z,24.25
2023-05-10T07:29:27.138Z,22.05
2023-05-10T07:34:31.034Z,22.40
2023-05-10T07:39:35.052Z,18.95
2023-05-10T07:44:37.677Z,27.63
2023-05-10T07:49:40.290Z,25.60
2023-05-10T07:54:45.491Z,26.17
2023-05-10T07:59:48.415Z,27.65
2023-05-10T08:04:50.986Z,25.00
2023-05-10T08:09:54.938Z,25.35
2023-05-10T08:14:57.951Z,20.02
2023-05-10T08:20:00.558Z,32.67
2023-05-10T08:25:04.714Z,23.60
2023-05-10T08:30:08.812Z,27.73
2023-05-10T08:35:11.432Z,24.48
2023-05-10T08:40:16.437Z,30.58
2023-05-10T08:45:20.182Z,19.77
2023-05-10T08:50:23.790Z,27.13
2023-05-10T08:55:27.826Z,23.65
2023-05-10T09:00:30.967Z,23.90
2023-05-10T09:05:33.737Z,22.65
2023-05-10T09:10:37.767Z,24.85
2023-05-10T09:15:40.388Z,29.40
2023-05-10T09:20:43.129Z,27.40
2023-05-10T09:25:47.198Z,26.35
2023-05-10T09:30:56.353Z,28.33
2023-05-10T09:36:08.736Z,32.00
2023-05-10T09:41:19.335Z,29.27
2023-05-10T09:46:22.015Z,35.50
2023-05-10T09:51:26.123Z,37.53
2023-05-10T09:56:36.869Z,40.33
2023-05-10T10:01:39.860Z,36.83
2023-05-10T10:06:43.063Z,46.40
2023-05-10T10:11:47.003Z,36.20
2023-05-10T10:17:05.566Z,38.17
2023-05-10T10:22:11.712Z,40.30
2023-05-10T10:27:23.760Z,41.33
2023-05-10T10:32:32.117Z,40.03
2023-05-10T10:37:45.032Z,35.03
2023-05-10T10:42:50.758Z,35.40
2023-05-10T10:48:10.854Z,34.95
2023-05-10T10:53:13.903Z,28.10
2023-05-10T10:58:33.581Z,37.35
2023-05-10T11:03:36.286Z,35.63
2023-05-10T11:08:45.394Z,29.73
2023-05-10T11:13:51.315Z,28.98
2023-05-10T11:18:56.120Z,31.10
2023-05-10T11:24:00.150Z,25.90
2023-05-10T11:29:05.849Z,25.05
2023-05-10T11:34:08.541Z,28.45
2023-05-10T11:39:12.366Z,23.42
2023-05-10T11:44:16.414Z,23.38
2023-05-10T11:49:19.956Z,24.80
2023-05-10T11:54:22.612Z,31.17
2023-05-10T11:59:27.213Z,27.42
2023-05-10T12:04:30.341Z,22.83
2023-05-10T12:09:43.427Z,24.15
2023-05-10T12:14:50.961Z,23.75
2023-05-10T12:19:53.650Z,26.30
2023-05-10T12:24:56.340Z,21.55
2023-05-10T12:30:02.346Z,20.77
2023-05-10T12:35:05.978Z,37.92
2023-05-10T12:40:10.460Z,23.30
2023-05-10T12:45:14.625Z,25.85
2023-05-10T12:50:17.505Z,22.38
2023-05-10T12:55:20.207Z,23.17
2023-05-10T13:00:24.261Z,27.08
2023-05-10T13:05:26.950Z,34.28
2023-05-10T13:10:31.126Z,25.45
2023-05-10T13:15:35.193Z,23.65
2023-05-10T13:20:37.893Z,32.17
2023-05-10T13:25:40.581Z,25.38
2023-05-10T13:30:44.820Z,24.85
2023-05-10T13:35:47.470Z,21.65
2023-05-10T13:40:53.339Z,20.30
2023-05-10T13:45:57.720Z,20.45
2023-05-10T13:51:00.400Z,25.35
2023-05-10T13:56:03.815Z,27.20
2023-05-10T14:01:07.831Z,32.80
2023-05-10T14:06:10.457Z,31.58
2023-05-10T14:11:13.797Z,30.05
2023-05-10T14:16:17.799Z,26.17
2023-05-10T14:21:20.467Z,24.40
2023-05-10T14:26:23.124Z,29.65
2023-05-10T14:31:27.318Z,29.00
2023-05-10T14:36:30.056Z,23.85
2023-05-10T14:41:32.719Z,26.38
2023-05-10T14:46:36.790Z,20.45
2023-05-10T14:51:39.463Z,26.95
2023-05-10T14:56:42.424Z,21.42
2023-05-10T15:01:46.595Z,20.70
2023-05-10T15:06:49.655Z,18.60
2023-05-10T15:11:52.484Z,17.10
2023-05-10T15:16:56.467Z,19.00
2023-05-10T15:21:59.101Z,17.15
2023-05-10T15:27:02.014Z,17.73
2023-05-10T15:32:08.000Z,16.02
2023-05-10T15:37:10.779Z,16.17
2023-05-10T15:42:13.899Z,12.48
2023-05-10T15:47:18.045Z,12.95
2023-05-10T15:52:21.017Z,13.00
2023-05-10T15:57:23.607Z,11.63
2023-05-10T16:02:27.828Z,11.73
2023-05-10T16:07:30.527Z,10.27
2023-05-10T16:12:33.156Z,11.00
2023-05-10T16:17:37.482Z,9.77
2023-05-10T16:22:40.531Z,11.20
2023-05-10T16:28:17.826Z,10.90
2023-05-10T17:13:10.821Z,11.40
2023-05-10T17:18:19.258Z,12.07
2023-05-10T17:23:27.918Z,9.73
2023-05-10T18:01:15.314Z,16.13
2023-05-10T18:06:18.000Z,12.50
2023-05-10T18:11:21.781Z,9.20
2023-05-10T18:16:25.902Z,5.07
2023-05-10T18:21:28.903Z,5.68
2023-05-10T18:26:31.548Z,6.10
2023-05-10T18:31:35.560Z,6.82
2023-05-10T18:36:38.295Z,6.20
2023-05-10T18:41:40.950Z,7.05
2023-05-10T18:46:45.232Z,5.70
2023-05-10T18:51:51.280Z,6.22
2023-05-10T18:56:58.566Z,8.48
2023-05-10T19:02:02.629Z,7.03
2023-05-10T19:07:05.569Z,9.88
2023-05-10T19:12:08.813Z,10.18
2023-05-10T19:17:13.257Z,8.27
2023-05-10T19:22:15.953Z,8.90
2023-05-10T19:27:18.711Z,10.63
2023-05-10T19:32:24.092Z,7.50
2023-05-10T19:37:27.123Z,9.90
2023-05-10T19:42:29.782Z,10.95
2023-05-10T19:47:35.181Z,9.57
2023-05-10T19:52:38.118Z,12.05
2023-05-10T19:57:40.873Z,10.68
2023-05-10T20:02:44.918Z,11.40
2023-05-10T20:07:47.603Z,11.45
2023-05-10T20:12:52.396Z,13.82
2023-05-10T20:17:56.822Z,12.93
2023-05-10T20:22:59.443Z,15.15
2023-05-10T20:28:02.382Z,13.15
2023-05-10T20:33:06.729Z,13.65
2023-05-10T20:38:09.418Z,13.07
2023-05-10T20:43:12.138Z,11.32
2023-05-10T20:48:16.654Z,14.63
2023-05-10T20:53:19.360Z,14.85
2023-05-10T20:58:26.279Z,14.48
2023-05-10T21:03:31.006Z,13.60
2023-05-10T21:08:33.637Z,14.05
2023-05-10T21:13:36.272Z,15.05
2023-05-10T21:18:40.272Z,14.25
2023-05-10T21:23:42.928Z,14.77
2023-05-10T21:28:45.788Z,15.10
2023-05-10T21:33:49.841Z,14.70
2023-05-10T21:38:52.537Z,15.63
2023-05-10T21:43:56.220Z,19.70
2023-05-10T21:49:00.232Z,19.55
2023-05-10T21:54:02.872Z,16.77
2023-05-10T21:59:05.542Z,15.52
2023-05-10T22:04:09.541Z,15.63
2023-05-10T22:09:12.186Z,18.60
2023-05-10T22:14:14.880Z,17.27
2023-05-10T22:19:18.890Z,17.15
2023-05-10T22:24:21.534Z,19.30
2023-05-10T22:29:24.376Z,17.83
2023-05-10T22:34:28.593Z,16.20
2023-05-10T22:39:31.237Z,16.83
2023-05-10T22:44:33.922Z,18.75
2023-05-10T22:49:38.614Z,23.52
2023-05-10T22:54:41.369Z,21.30
2023-05-10T23:00:33.798Z,18.95
2023-05-10T23:05:37.907Z,22.35
2023-05-10T23:10:40.545Z,21.45
2023-05-10T23:15:43.540Z,23.15
2023-05-10T23:20:47.561Z,22.63
2023-05-10T23:25:50.295Z,19.98
2023-05-10T23:30:55.893Z,22.65
2023-05-10T23:35:59.813Z,22.10
2023-05-10T23:41:02.405Z,21.98
2023-05-10T23:46:06.455Z,22.33
2023-05-10T23:51:10.505Z,19.20
2023-05-10T23:56:13.175Z,20.88
